Time;durP1;ratioP1;P1;durP2;ratioP2;P2;SDS_P1;SDS_P2;PMS_P1;PMS_P2;Temp;Humidity;BMP_temperature;BMP_pressure;BME280_temperature;BME280_humidity;BME280_pressure;Samples;Min_cycle;Max_cycle;Signal;HPM_P1;HPM_P2
2022/10/12 00:00:43;;;;;;;;;;;;;;;6.37;89.24;100039.47;8292113;28;19936;-75
2022/10/12 00:04:45;;;;;;;;;;;;;;;6.32;89.22;100044.53;8310806;28;19937;-75
2022/10/12 00:08:47;;;;;;;;;;;;;;;6.27;89.19;100034.94;8301912;28;19941;-75
2022/10/12 00:12:48;;;;;;;;;;;;;;;6.17;88.88;100041.59;8307272;28;20376;-75
2022/10/12 00:16:50;;;;;;;;;;;;;;;6.14;88.81;100035.50;8308214;28;19990;-75
2022/10/12 00:20:59;;;;;;;;;;;;;;;6.11;89.21;100036.31;8308222;28;19952;-75
2022/10/12 00:25:00;;;;;;;;;;;;;;;6.09;89.94;100034.50;8287233;28;19999;-75
2022/10/12 00:29:02;;;;;;;;;;;;;;;6.07;89.77;100039.63;8310306;28;19929;-75
2022/10/12 00:33:04;;;;;;;;;;;;;;;6.01;89.97;100045.50;8308793;28;19995;-75
2022/10/12 00:37:05;;;;;;;;;;;;;;;6.00;90.12;100046.34;8309925;28;19987;-75
2022/10/12 00:41:07;;;;;;;;;;;;;;;5.97;89.83;100055.72;8311437;28;19930;-75
2022/10/12 00:45:08;;;;;;;;;;;;;;;5.91;90.02;100050.38;8305052;28;19929;-75
2022/10/12 00:49:19;;;;;;;;;;;;;;;5.88;90.02;100050.28;8272831;28;19930;-75
2022/10/12 00:53:22;;;;;;;;;;;;;;;5.83;89.52;100055.34;8287653;28;20714;-75
2022/10/12 00:57:24;;;;;;;;;;;;;;;5.81;89.99;100054.44;8301880;28;19929;-75
2022/10/12 01:01:26;;;;;;;;;;;;;;;5.80;90.03;100049.25;8311168;28;20362;-75
2022/10/12 01:05:27;;;;;;;;;;;;;;;5.76;90.35;100048.28;8294887;28;19939;-75
2022/10/12 01:09:29;;;;;;;;;;;;;;;5.71;90.37;100047.28;8307490;28;19933;-75
2022/10/12 01:13:31;;;;;;;;;;;;;;;5.65;90.20;100044.56;8306025;28;19956;-75
2022/10/12 01:17:44;;;;;;;;;;;;;;;5.60;89.49;100047.03;8290806;28;19933;-75
2022/10/12 01:21:56;;;;;;;;;;;;;;;5.55;89.72;100047.72;8291442;28;19929;-75
2022/10/12 01:26:15;;;;;;;;;;;;;;;5.48;90.09;100049.28;8292514;28;20011;-75
2022/10/12 01:30:21;;;;;;;;;;;;;;;5.42;89.84;100056.84;8313059;28;20358;-75
2022/10/12 01:34:33;;;;;;;;;;;;;;;5.36;89.78;100049.81;8291799;28;19925;-75
2022/10/12 01:38:53;;;;;;;;;;;;;;;5.32;89.84;100050.56;8299989;28;19941;-75
2022/10/12 01:42:56;;;;;;;;;;;;;;;5.32;89.68;100037.69;8312957;28;19929;-75
2022/10/12 01:46:57;;;;;;;;;;;;;;;5.29;89.88;100041.88;8306061;28;19937;-75
2022/10/12 01:51:01;;;;;;;;;;;;;;;5.27;89.78;100033.25;8296371;28;19929;-75
2022/10/12 01:55:02;;;;;;;;;;;;;;;5.24;89.50;100030.59;8311443;28;19940;-75
2022/10/12 01:59:13;;;;;;;;;;;;;;;5.21;89.48;100031.41;8311267;28;19987;-75
2022/10/12 02:03:23;;;;;;;;;;;;;;;5.13;89.38;100026.00;8312132;28;19975;-76
2022/10/12 02:07:31;;;;;;;;;;;;;;;5.09;89.42;100029.34;8312609;28;19933;-75
2022/10/12 02:11:36;;;;;;;;;;;;;;;5.08;89.93;100024.16;8297655;28;20309;-75
2022/10/12 02:15:39;;;;;;;;;;;;;;;5.03;89.60;100026.63;8311987;28;19933;-75
2022/10/12 02:19:44;;;;;;;;;;;;;;;5.02;89.77;100019.69;8309972;28;19933;-75
2022/10/12 02:23:46;;;;;;;;;;;;;;;4.97;89.61;100012.69;8300684;28;20003;-75
2022/10/12 02:27:50;;;;;;;;;;;;;;;4.86;90.01;100009.81;8279825;28;19929;-75
2022/10/12 02:31:57;;;;;;;;;;;;;;;4.85;90.00;100000.38;8307579;28;19929;-75
2022/10/12 02:36:08;;;;;;;;;;;;;;;4.81;89.89;99991.66;8290000;28;19983;-75
2022/10/12 02:40:11;;;;;;;;;;;;;;;4.79;89.67;99997.59;8274726;28;20006;-75
2022/10/12 02:44:15;;;;;;;;;;;;;;;4.70;89.41;99997.34;8285026;28;19937;-75
2022/10/12 02:48:22;;;;;;;;;;;;;;;4.67;89.39;99997.22;8303840;28;20368;-75
2022/10/12 02:52:23;;;;;;;;;;;;;;;4.66;89.96;99993.78;8307371;28;19929;-76
2022/10/12 02:56:25;;;;;;;;;;;;;;;4.64;90.46;99999.72;8311306;28;19983;-75
2022/10/12 03:00:26;;;;;;;;;;;;;;;4.61;90.33;99990.22;8318002;28;20415;-75
2022/10/12 03:04:28;;;;;;;;;;;;;;;4.64;90.63;99999.72;8297062;28;19991;-75
2022/10/12 03:08:29;;;;;;;;;;;;;;;4.58;90.47;99995.28;8311252;28;19929;-75
2022/10/12 03:12:30;;;;;;;;;;;;;;;4.59;90.91;99993.59;8275184;28;19936;-75
2022/10/12 03:16:31;;;;;;;;;;;;;;;4.55;90.25;99985.78;8306459;28;19936;-75
2022/10/12 03:20:33;;;;;;;;;;;;;;;4.52;90.38;99992.53;8308322;28;19984;-75
2022/10/12 03:24:34;;;;;;;;;;;;;;;4.44;90.02;99987.16;8300433;28;19933;-75
2022/10/12 03:28:36;;;;;;;;;;;;;;;4.36;89.74;99985.19;8311209;28;19937;-75
2022/10/12 03:32:38;;;;;;;;;;;;;;;4.37;90.01;99986.94;8311445;28;19990;-75
2022/10/12 03:36:40;;;;;;;;;;;;;;;4.32;90.02;99991.97;8315144;28;19929;-75
2022/10/12 03:40:41;;;;;;;;;;;;;;;4.33;90.15;99991.13;8320429;28;19929;-75
2022/10/12 03:44:43;;;;;;;;;;;;;;;4.32;90.34;100003.94;8288579;28;20282;-75
2022/10/12 03:48:44;;;;;;;;;;;;;;;4.30;90.59;100008.13;8295741;28;20346;-75
2022/10/12 03:52:46;;;;;;;;;;;;;;;4.28;90.45;100009.78;8309209;28;19929;-75
2022/10/12 03:56:47;;;;;;;;;;;;;;;4.29;90.40;100008.97;8306051;28;19933;-75
2022/10/12 04:00:52;;;;;;;;;;;;;;;4.25;90.70;100006.31;8289102;28;19936;-75
2022/10/12 04:04:53;;;;;;;;;;;;;;;4.17;90.45;100007.78;8309069;28;20470;-75
2022/10/12 04:08:54;;;;;;;;;;;;;;;4.15;90.41;100000.84;8297518;28;19937;-75
2022/10/12 04:12:56;;;;;;;;;;;;;;;4.13;90.26;100003.38;8297906;28;19975;-75
2022/10/12 04:16:58;;;;;;;;;;;;;;;4.10;90.15;100000.69;8314316;28;20479;-75
2022/10/12 04:20:59;;;;;;;;;;;;;;;4.07;89.77;100002.28;8313234;28;19933;-75
2022/10/12 04:25:01;;;;;;;;;;;;;;;3.92;89.46;100008.69;8314940;28;19994;-75
2022/10/12 04:29:02;;;;;;;;;;;;;;;3.88;89.96;100003.41;8312431;28;19933;-76
2022/10/12 04:33:04;;;;;;;;;;;;;;;3.87;90.37;99999.97;8294262;28;19937;-75
2022/10/12 04:37:06;;;;;;;;;;;;;;;3.89;90.63;100003.44;8312835;28;19929;-75
2022/10/12 04:41:07;;;;;;;;;;;;;;;3.88;90.62;100000.84;8292077;28;19929;-75
2022/10/12 04:45:09;;;;;;;;;;;;;;;3.87;90.46;100004.22;8307419;28;20263;-75
2022/10/12 04:49:10;;;;;;;;;;;;;;;3.82;90.63;99996.38;8298353;28;19933;-75
2022/10/12 04:53:11;;;;;;;;;;;;;;;3.82;90.58;100005.78;8291725;28;19987;-75
2022/10/12 04:57:13;;;;;;;;;;;;;;;3.76;90.33;100015.84;8285986;28;19937;-75
2022/10/12 05:01:14;;;;;;;;;;;;;;;3.69;90.55;100014.78;8289100;28;19937;-75
2022/10/12 05:05:16;;;;;;;;;;;;;;;3.67;90.49;100008.72;8295636;28;20453;-76
2022/10/12 05:09:17;;;;;;;;;;;;;;;3.71;91.00;100008.00;8275455;28;19937;-75
2022/10/12 05:13:18;;;;;;;;;;;;;;;3.69;91.11;100009.66;8310058;28;19933;-76
2022/10/12 05:17:19;;;;;;;;;;;;;;;3.66;91.24;99999.28;8291551;28;19995;-76
2022/10/12 05:21:21;;;;;;;;;;;;;;;3.64;91.01;99995.78;8304844;28;19929;-76
2022/10/12 05:25:22;;;;;;;;;;;;;;;3.59;90.81;99999.88;8306738;28;19960;-76
2022/10/12 05:29:23;;;;;;;;;;;;;;;3.49;90.58;100003.84;8287520;28;20593;-76
2022/10/12 05:33:25;;;;;;;;;;;;;;;3.46;90.59;100001.19;8297732;28;19941;-76
2022/10/12 05:37:26;;;;;;;;;;;;;;;3.47;90.70;100000.38;8287443;28;19952;-75
2022/10/12 05:41:28;;;;;;;;;;;;;;;3.53;91.33;99998.00;8310525;28;19939;-75
2022/10/12 05:45:29;;;;;;;;;;;;;;;3.62;91.75;100013.72;8304146;28;19929;-75
2022/10/12 05:49:30;;;;;;;;;;;;;;;3.71;91.87;100009.69;8281242;28;20408;-75
2022/10/12 05:53:32;;;;;;;;;;;;;;;3.86;92.47;100008.50;8305744;28;19944;-75
2022/10/12 05:57:35;;;;;;;;;;;;;;;3.99;92.62;100008.91;8295108;28;19983;-75
2022/10/12 06:01:37;;;;;;;;;;;;;;;4.10;92.44;100010.97;8284814;28;19929;-75
2022/10/12 06:05:38;;;;;;;;;;;;;;;4.23;92.62;100007.09;8290944;28;20350;-75
2022/10/12 06:09:39;;;;;;;;;;;;;;;4.19;92.02;100003.56;8316083;28;19991;-74
2022/10/12 06:13:41;;;;;;;;;;;;;;;4.29;92.25;100003.81;8291372;28;19983;-75
2022/10/12 06:17:42;;;;;;;;;;;;;;;4.34;92.45;100003.16;8306928;28;19929;-75
2022/10/12 06:21:43;;;;;;;;;;;;;;;4.46;92.75;100000.94;8307779;28;19996;-76
2022/10/12 06:25:49;;;;;;;;;;;;;;;4.61;93.66;99994.50;8294710;28;19933;-74
2022/10/12 06:29:50;;;;;;;;;;;;;;;4.73;93.74;100007.72;8309590;28;19937;-76
2022/10/12 06:33:52;;;;;;;;;;;;;;;4.75;93.63;100012.06;8311138;28;19937;-76
2022/10/12 06:37:54;;;;;;;;;;;;;;;4.83;93.58;100009.72;8298504;28;19933;-75
2022/10/12 06:41:55;;;;;;;;;;;;;;;4.98;93.70;100012.72;8306860;28;19929;-76
2022/10/12 06:46:03;;;;;;;;;;;;;;;5.14;93.80;100019.16;8279229;28;19926;-75
2022/10/12 06:50:04;;;;;;;;;;;;;;;5.32;94.11;100021.38;8292019;28;19955;-75
2022/10/12 06:54:06;;;;;;;;;;;;;;;5.43;94.05;100022.53;8304947;28;20028;-75
2022/10/12 06:58:07;;;;;;;;;;;;;;;5.54;93.50;100023.66;8301983;28;20816;-75
2022/10/12 07:02:10;;;;;;;;;;;;;;;5.65;93.38;100023.94;8269823;28;19944;-75
2022/10/12 07:06:12;;;;;;;;;;;;;;;5.76;93.22;100032.84;8285557;28;19972;-75
2022/10/12 07:10:14;;;;;;;;;;;;;;;5.85;92.96;100021.88;8314130;28;20263;-75
2022/10/12 07:14:15;;;;;;;;;;;;;;;5.92;92.98;100029.81;8304714;28;19933;-75
2022/10/12 07:18:16;;;;;;;;;;;;;;;6.04;93.04;100037.84;8291264;28;19929;-75
2022/10/12 07:22:18;;;;;;;;;;;;;;;6.17;93.30;100040.72;8308954;28;19944;-75
2022/10/12 07:26:19;;;;;;;;;;;;;;;6.32;93.43;100048.81;8308482;28;19929;-75
2022/10/12 07:30:20;;;;;;;;;;;;;;;6.44;93.43;100051.66;8287412;28;19933;-75
2022/10/12 07:34:21;;;;;;;;;;;;;;;6.59;93.75;100048.56;8307347;28;20455;-75
2022/10/12 07:38:23;;;;;;;;;;;;;;;6.72;93.54;100053.16;8309552;28;20370;-75
2022/10/12 07:42:24;;;;;;;;;;;;;;;6.87;93.10;100048.31;8309519;28;19991;-75
2022/10/12 07:46:26;;;;;;;;;;;;;;;7.06;92.77;100048.69;8293028;28;19940;-75
2022/10/12 07:50:27;;;;;;;;;;;;;;;7.23;92.35;100039.59;8309927;28;19941;-76
2022/10/12 07:54:29;;;;;;;;;;;;;;;7.39;92.21;100040.75;8306796;28;19929;-75
2022/10/12 07:58:30;;;;;;;;;;;;;;;7.51;91.78;100034.06;8310929;28;20321;-76
2022/10/12 08:02:32;;;;;;;;;;;;;;;7.68;91.80;100042.13;8272872;28;19937;-76
2022/10/12 08:06:33;;;;;;;;;;;;;;;7.84;91.76;100033.78;8286426;28;19929;-75
2022/10/12 08:10:34;;;;;;;;;;;;;;;7.99;91.24;100043.53;8304372;28;20027;-76
2022/10/12 08:14:36;;;;;;;;;;;;;;;8.14;90.42;100048.06;8303949;28;19929;-76
2022/10/12 08:18:38;;;;;;;;;;;;;;;8.30;90.42;100042.31;8301740;28;19928;-76
2022/10/12 08:22:39;;;;;;;;;;;;;;;8.45;90.70;100039.09;8309991;28;19929;-75
2022/10/12 08:26:41;;;;;;;;;;;;;;;8.63;90.84;100049.72;8289996;28;19995;-75
2022/10/12 08:30:42;;;;;;;;;;;;;;;8.87;90.86;100051.75;8305766;28;19939;-75
2022/10/12 08:34:43;;;;;;;;;;;;;;;9.09;90.46;100043.41;8273988;28;19929;-76
2022/10/12 08:38:49;;;;;;;;;;;;;;;9.32;90.14;100040.19;8292749;28;20274;-75
2022/10/12 08:43:14;;;;;;;;;;;;;;;9.55;90.06;100038.75;8297516;28;19955;-75
2022/10/12 08:47:33;;;;;;;;;;;;;;;9.69;87.48;100038.84;8278109;28;20342;-75
2022/10/12 08:51:39;;;;;;;;;;;;;;;9.85;85.62;100039.88;8305563;28;19939;-75
2022/10/12 08:55:44;;;;;;;;;;;;;;;10.00;85.20;100042.59;8306522;28;19980;-75
2022/10/12 08:59:46;;;;;;;;;;;;;;;10.15;83.91;100041.84;8275227;28;19983;-75
2022/10/12 09:03:57;;;;;;;;;;;;;;;10.26;83.26;100041.13;8260292;28;19933;-75
2022/10/12 09:08:03;;;;;;;;;;;;;;;10.40;83.04;100040.31;8276092;28;19940;-76
2022/10/12 09:12:04;;;;;;;;;;;;;;;10.51;82.36;100041.28;8271549;28;20290;-75
2022/10/12 09:16:13;;;;;;;;;;;;;;;10.62;81.72;100033.56;8275396;28;19930;-75
2022/10/12 09:20:20;;;;;;;;;;;;;;;10.73;80.76;100037.94;8256730;28;19984;-75
2022/10/12 09:24:24;;;;;;;;;;;;;;;10.83;80.33;100036.25;8238981;28;19930;-75
2022/10/12 09:28:35;;;;;;;;;;;;;;;10.94;80.27;100044.09;8277468;28;19929;-75
2022/10/12 09:32:42;;;;;;;;;;;;;;;11.09;80.21;100038.97;8257392;28;19941;-75
2022/10/12 09:36:43;;;;;;;;;;;;;;;11.21;79.92;100036.41;8280437;28;20471;-76
2022/10/12 09:40:46;;;;;;;;;;;;;;;11.30;79.86;100039.03;8243593;28;19933;-75
2022/10/12 09:44:48;;;;;;;;;;;;;;;11.41;80.57;100032.16;8260808;28;20676;-75
2022/10/12 09:48:57;;;;;;;;;;;;;;;11.50;80.77;100036.50;8277359;28;19992;-75
2022/10/12 09:52:59;;;;;;;;;;;;;;;11.63;80.42;100037.38;8272317;28;19934;-76
2022/10/12 09:57:01;;;;;;;;;;;;;;;11.75;80.17;100035.69;8261144;28;19929;-75
2022/10/12 10:01:15;;;;;;;;;;;;;;;11.84;79.44;100029.63;8275115;28;19929;-76
2022/10/12 10:05:27;;;;;;;;;;;;;;;11.98;79.99;100043.53;8278304;28;20675;-75
2022/10/12 10:09:32;;;;;;;;;;;;;;;12.08;79.19;100047.00;8280532;28;19933;-75
2022/10/12 10:13:36;;;;;;;;;;;;;;;12.19;79.17;100039.19;8277872;28;20403;-76
2022/10/12 10:17:37;;;;;;;;;;;;;;;12.31;78.91;100031.38;8293896;28;19936;-75
2022/10/12 10:21:39;;;;;;;;;;;;;;;12.35;77.90;100035.69;8321066;28;19933;-76
2022/10/12 10:25:41;;;;;;;;;;;;;;;12.46;77.03;100043.50;8328671;28;19987;-76
2022/10/12 10:29:44;;;;;;;;;;;;;;;12.50;76.34;100040.03;8319205;28;19940;-76
2022/10/12 10:34:01;;;;;;;;;;;;;;;12.63;77.05;100039.13;8322725;28;19936;-76
2022/10/12 10:38:04;;;;;;;;;;;;;;;12.81;77.64;100038.22;8339458;28;19983;-76
2022/10/12 10:42:09;;;;;;;;;;;;;;;12.97;77.57;100038.16;8344889;28;19929;-76
2022/10/12 10:46:12;;;;;;;;;;;;;;;13.09;76.16;100041.56;8334995;28;19930;-75
2022/10/12 10:50:24;;;;;;;;;;;;;;;13.12;74.57;100029.41;8338268;28;19928;-76
2022/10/12 10:54:27;;;;;;;;;;;;;;;13.23;75.47;100025.03;8319323;28;20362;-76
2022/10/12 10:58:33;;;;;;;;;;;;;;;13.41;75.56;100017.97;8338021;28;19933;-76
2022/10/12 11:02:39;;;;;;;;;;;;;;;13.56;75.16;100013.53;8336613;28;19986;-76
2022/10/12 11:06:42;;;;;;;;;;;;;;;13.73;75.49;100007.34;8331824;28;20066;-76
2022/10/12 11:10:43;;;;;;;;;;;;;;;13.89;75.29;100006.34;8332303;28;19929;-76
2022/10/12 11:14:47;;;;;;;;;;;;;;;13.99;73.97;100005.38;8344532;28;20346;-76
2022/10/12 11:18:52;;;;;;;;;;;;;;;14.10;73.14;99997.47;8322184;28;19929;-76
2022/10/12 11:22:56;;;;;;;;;;;;;;;14.29;73.54;100003.38;8326542;28;20309;-76
2022/10/12 11:27:07;;;;;;;;;;;;;;;14.42;73.54;100000.63;8329198;28;19937;-76
2022/10/12 11:31:28;;;;;;;;;;;;;;;14.61;73.61;99997.88;8322368;28;19929;-77
2022/10/12 11:35:33;;;;;;;;;;;;;;;14.66;72.44;99988.22;8316159;28;19932;-76
2022/10/12 11:39:38;;;;;;;;;;;;;;;14.58;72.45;99987.44;8354054;28;19933;-76
2022/10/12 11:43:48;;;;;;;;;;;;;;;14.59;72.16;99997.00;8326713;28;20657;-76
2022/10/12 11:47:52;;;;;;;;;;;;;;;14.61;72.42;99984.78;8325325;28;19929;-77
2022/10/12 11:51:56;;;;;;;;;;;;;;;14.59;72.28;99981.34;8344240;28;19987;-77
2022/10/12 11:56:21;;;;;;;;;;;;;;;14.61;72.42;99977.81;8348227;28;19944;-77
2022/10/12 12:00:26;;;;;;;;;;;;;;;14.73;73.10;99987.28;8331108;28;19986;-76
2022/10/12 12:04:30;;;;;;;;;;;;;;;14.89;73.15;99980.94;8331894;28;20219;-77
2022/10/12 12:08:53;;;;;;;;;;;;;;;14.90;71.72;99982.72;8347163;28;20388;-77
2022/10/12 12:13:13;;;;;;;;;;;;;;;14.98;72.06;99978.22;8348630;28;19929;-76
2022/10/12 12:17:18;;;;;;;;;;;;;;;15.13;72.68;99973.69;8343606;28;20785;-77
2022/10/12 12:21:19;;;;;;;;;;;;;;;15.24;72.62;99966.53;8343773;28;20018;-76
2022/10/12 12:25:31;;;;;;;;;;;;;;;15.16;70.65;99968.41;8328096;28;19933;-76
2022/10/12 12:29:32;;;;;;;;;;;;;;;15.23;71.10;99956.97;8344832;28;20338;-76
2022/10/12 12:33:34;;;;;;;;;;;;;;;15.34;71.76;99952.47;8332992;28;19929;-76
2022/10/12 12:37:36;;;;;;;;;;;;;;;15.31;70.62;99952.50;8346888;28;19928;-76
2022/10/12 12:41:53;;;;;;;;;;;;;;;15.16;70.65;99948.34;8351047;28;19928;-76
2022/10/12 12:46:10;;;;;;;;;;;;;;;15.27;71.59;99953.44;8327858;28;19929;-76
2022/10/12 12:50:32;;;;;;;;;;;;;;;15.32;70.93;99941.16;8322274;28;19930;-76
2022/10/12 12:54:34;;;;;;;;;;;;;;;15.40;71.63;99934.03;8339323;28;20010;-76
2022/10/12 12:58:37;;;;;;;;;;;;;;;15.48;71.41;99931.31;8304708;28;19986;-76
2022/10/12 13:02:57;;;;;;;;;;;;;;;15.61;70.48;99936.34;8340379;28;19932;-76
2022/10/12 13:07:11;;;;;;;;;;;;;;;15.52;69.57;99948.69;8330909;28;20325;-76
2022/10/12 13:11:27;;;;;;;;;;;;;;;15.50;69.66;99946.09;8332648;28;19933;-76
2022/10/12 13:15:32;;;;;;;;;;;;;;;15.61;70.64;99943.34;8318556;28;19933;-76
2022/10/12 13:19:34;;;;;;;;;;;;;;;15.70;70.84;99944.06;8325470;28;19939;-76
2022/10/12 13:23:36;;;;;;;;;;;;;;;15.76;69.89;99940.47;8334912;28;19928;-76
2022/10/12 13:28:04;;;;;;;;;;;;;;;15.84;69.80;99942.97;8337474;28;19933;-76
2022/10/12 13:32:12;;;;;;;;;;;;;;;15.78;69.12;99940.44;8322521;28;19936;-77
2022/10/12 13:36:17;;;;;;;;;;;;;;;15.71;69.77;99943.16;8320889;28;19995;-77
2022/10/12 13:40:29;;;;;;;;;;;;;;;15.75;70.28;99940.50;8316577;28;21023;-77
2022/10/12 13:44:33;;;;;;;;;;;;;;;15.76;70.54;99943.09;8305160;28;19929;-76
2022/10/12 13:48:34;;;;;;;;;;;;;;;15.77;70.07;99930.84;8315618;28;19947;-76
2022/10/12 13:52:56;;;;;;;;;;;;;;;15.73;69.83;99927.44;8316517;28;19933;-77
2022/10/12 13:56:59;;;;;;;;;;;;;;;15.75;70.37;99914.31;8301228;28;19929;-78
2022/10/12 14:01:01;;;;;;;;;;;;;;;15.81;70.79;99914.22;8295068;28;19994;-77
2022/10/12 14:05:07;;;;;;;;;;;;;;;15.89;70.62;99920.19;8317052;28;19972;-77
2022/10/12 14:09:11;;;;;;;;;;;;;;;15.91;69.81;99914.03;8311745;28;19929;-76
2022/10/12 14:13:14;;;;;;;;;;;;;;;15.93;69.71;99919.22;8298944;28;20015;-77
2022/10/12 14:17:19;;;;;;;;;;;;;;;15.82;69.77;99911.59;8313718;28;19929;-77
2022/10/12 14:21:28;;;;;;;;;;;;;;;15.79;71.07;99906.38;8294283;28;20118;-76
2022/10/12 14:25:35;;;;;;;;;;;;;;;15.79;71.22;99906.38;8302971;28;19933;-76
2022/10/12 14:29:41;;;;;;;;;;;;;;;15.74;70.30;99902.97;8301377;28;20309;-76
2022/10/12 14:33:42;;;;;;;;;;;;;;;15.64;70.16;99899.66;8283978;28;20019;-77
2022/10/12 14:37:44;;;;;;;;;;;;;;;15.58;71.03;99904.94;8337828;28;19979;-77
2022/10/12 14:41:49;;;;;;;;;;;;;;;15.56;71.73;99903.25;8318990;28;19978;-76
2022/10/12 14:45:51;;;;;;;;;;;;;;;15.55;71.98;99904.16;8329018;28;20389;-77
2022/10/12 14:49:53;;;;;;;;;;;;;;;15.44;71.89;99896.47;8336010;28;20517;-76
2022/10/12 14:53:58;;;;;;;;;;;;;;;15.37;72.69;99895.69;8339970;28;19975;-76
2022/10/12 14:58:00;;;;;;;;;;;;;;;15.36;72.66;99890.50;8345214;28;19955;-76
2022/10/12 15:02:01;;;;;;;;;;;;;;;15.35;72.59;99889.63;8347230;28;19929;-76
2022/10/12 15:06:02;;;;;;;;;;;;;;;15.30;72.62;99896.69;8346537;28;19933;-77
2022/10/12 15:10:04;;;;;;;;;;;;;;;15.28;73.39;99900.22;8329956;28;20027;-76
2022/10/12 15:14:07;;;;;;;;;;;;;;;15.22;74.12;99890.69;8345557;28;19936;-76
2022/10/12 15:18:09;;;;;;;;;;;;;;;15.11;74.61;99882.16;8325149;28;19929;-76
2022/10/12 15:22:14;;;;;;;;;;;;;;;14.91;74.23;99881.59;8326892;28;19929;-76
2022/10/12 15:26:16;;;;;;;;;;;;;;;15.03;75.40;99882.25;8329629;28;20482;-77
2022/10/12 15:30:18;;;;;;;;;;;;;;;15.27;75.39;99886.28;8325497;28;20435;-76
2022/10/12 15:34:20;;;;;;;;;;;;;;;15.43;74.41;99876.41;8343306;28;19936;-77
2022/10/12 15:38:21;;;;;;;;;;;;;;;15.57;74.24;99884.03;8351747;28;19929;-77
2022/10/12 15:42:22;;;;;;;;;;;;;;;15.91;73.77;99882.59;8335526;28;19925;-76
2022/10/12 15:46:24;;;;;;;;;;;;;;;16.02;72.44;99885.91;8346611;28;19929;-76
2022/10/12 15:50:30;;;;;;;;;;;;;;;16.33;71.58;99883.53;8349992;28;19932;-76
2022/10/12 15:54:31;;;;;;;;;;;;;;;15.84;72.50;99873.13;8350664;28;19994;-76
2022/10/12 15:58:33;;;;;;;;;;;;;;;15.28;73.87;99853.13;8347163;28;19928;-76
2022/10/12 16:02:34;;;;;;;;;;;;;;;14.86;75.67;99862.47;8318563;28;19929;-77
2022/10/12 16:06:36;;;;;;;;;;;;;;;14.55;77.05;99862.03;8346260;28;19929;-77
2022/10/12 16:10:38;;;;;;;;;;;;;;;14.30;78.43;99862.28;8335765;28;19928;-77
2022/10/12 16:14:40;;;;;;;;;;;;;;;14.10;79.04;99861.66;8347448;28;19933;-77
2022/10/12 16:18:41;;;;;;;;;;;;;;;13.88;79.92;99867.13;8347148;28;19932;-77
2022/10/12 16:22:43;;;;;;;;;;;;;;;13.72;80.54;99867.28;8347742;28;20011;-77
2022/10/12 16:26:46;;;;;;;;;;;;;;;13.56;81.32;99862.19;8317867;28;19929;-77
2022/10/12 16:30:48;;;;;;;;;;;;;;;13.37;81.47;99862.38;8327240;28;19935;-77
2022/10/12 16:34:50;;;;;;;;;;;;;;;13.14;82.33;99858.19;8350147;28;20985;-77
2022/10/12 16:38:52;;;;;;;;;;;;;;;12.97;82.81;99857.44;8340505;28;20018;-77
2022/10/12 16:42:53;;;;;;;;;;;;;;;12.79;83.13;99854.94;8339585;28;19928;-77
2022/10/12 16:46:54;;;;;;;;;;;;;;;12.57;83.85;99862.88;8316833;28;19925;-77
2022/10/12 16:50:56;;;;;;;;;;;;;;;12.39;84.16;99868.16;8318729;28;19980;-76
2022/10/12 16:54:57;;;;;;;;;;;;;;;12.21;84.28;99870.81;8334820;28;19929;-76
2022/10/12 16:58:59;;;;;;;;;;;;;;;11.95;84.80;99873.50;8336543;28;19928;-76
2022/10/12 17:03:00;;;;;;;;;;;;;;;11.80;86.02;99869.19;8338856;28;19951;-76
2022/10/12 17:07:01;;;;;;;;;;;;;;;11.68;86.21;99851.00;8343915;28;19932;-76
2022/10/12 17:11:04;;;;;;;;;;;;;;;11.53;85.66;99869.19;8338169;28;19978;-77
2022/10/12 17:15:05;;;;;;;;;;;;;;;11.33;86.82;99864.88;8321354;28;19928;-76
2022/10/12 17:19:07;;;;;;;;;;;;;;;11.22;86.78;99865.72;8335892;28;19933;-76
2022/10/12 17:23:08;;;;;;;;;;;;;;;11.01;87.20;99870.03;8336597;28;19932;-75
2022/10/12 17:27:11;;;;;;;;;;;;;;;10.89;88.32;99870.88;8326807;28;19966;-76
2022/10/12 17:31:12;;;;;;;;;;;;;;;10.88;88.75;99883.88;8343978;28;19935;-75
2022/10/12 17:35:14;;;;;;;;;;;;;;;10.81;89.09;99880.41;8343214;28;19924;-75
2022/10/12 17:39:15;;;;;;;;;;;;;;;10.70;89.11;99871.69;8338927;28;20002;-75
2022/10/12 17:43:17;;;;;;;;;;;;;;;10.60;88.59;99880.34;8324447;28;19933;-75
2022/10/12 17:47:18;;;;;;;;;;;;;;;10.50;88.89;99879.44;8339443;28;20365;-75
2022/10/12 17:51:20;;;;;;;;;;;;;;;10.41;89.07;99886.28;8339981;28;19943;-75
2022/10/12 17:55:22;;;;;;;;;;;;;;;10.32;89.45;99879.34;8330007;28;20359;-75
2022/10/12 17:59:43;;;;;;;;;;;;;;;10.24;89.76;99881.94;8341945;28;19933;-75
2022/10/12 18:03:46;;;;;;;;;;;;;;;10.13;89.49;99883.56;8329601;28;20537;-74
2022/10/12 18:07:47;;;;;;;;;;;;;;;10.06;89.35;99880.94;8336990;28;20015;-75
2022/10/12 18:11:48;;;;;;;;;;;;;;;10.00;89.95;99895.59;8334215;28;19929;-74
2022/10/12 18:15:50;;;;;;;;;;;;;;;9.92;89.98;99896.41;8336523;28;19929;-75
2022/10/12 18:19:51;;;;;;;;;;;;;;;9.83;90.07;99896.34;8325676;28;19933;-75
2022/10/12 18:23:53;;;;;;;;;;;;;;;9.75;89.56;99898.88;8340424;28;19929;-74
2022/10/12 18:27:54;;;;;;;;;;;;;;;9.68;89.12;99899.69;8350449;28;19928;-74
2022/10/12 18:31:56;;;;;;;;;;;;;;;9.51;89.81;99907.34;8349617;28;19933;-74
2022/10/12 18:36:05;;;;;;;;;;;;;;;9.42;90.42;99901.22;8348200;28;19986;-75
2022/10/12 18:40:06;;;;;;;;;;;;;;;9.37;91.36;99903.78;8326871;28;19938;-75
2022/10/12 18:44:08;;;;;;;;;;;;;;;9.30;90.90;99900.25;8350386;28;19929;-75
2022/10/12 18:48:13;;;;;;;;;;;;;;;9.26;90.91;99888.13;8333048;28;20290;-74
2022/10/12 18:52:15;;;;;;;;;;;;;;;9.21;91.16;99895.00;8350435;28;19928;-74
2022/10/12 18:56:17;;;;;;;;;;;;;;;9.13;91.13;99894.03;8328235;28;19952;-74
2022/10/12 19:00:19;;;;;;;;;;;;;;;9.09;91.11;99889.69;8332401;28;19929;-74
2022/10/12 19:04:20;;;;;;;;;;;;;;;8.99;91.64;99898.25;8349842;28;19967;-74
2022/10/12 19:08:21;;;;;;;;;;;;;;;8.97;92.27;99889.56;8348844;28;20262;-74
2022/10/12 19:12:23;;;;;;;;;;;;;;;8.97;91.94;99889.56;8346354;28;19933;-74
2022/10/12 19:16:24;;;;;;;;;;;;;;;8.94;91.80;99894.72;8345289;28;19986;-75
2022/10/12 19:20:26;;;;;;;;;;;;;;;8.91;92.35;99903.31;8318841;28;19944;-75
2022/10/12 19:24:27;;;;;;;;;;;;;;;8.90;92.43;99891.22;8348392;28;20457;-73
2022/10/12 19:28:29;;;;;;;;;;;;;;;8.91;93.06;99884.34;8332329;28;20399;-73
2022/10/12 19:32:31;;;;;;;;;;;;;;;8.92;92.46;99883.47;8325917;28;19928;-73
2022/10/12 19:36:33;;;;;;;;;;;;;;;8.89;92.58;99881.72;8345130;28;19936;-73
2022/10/12 19:40:34;;;;;;;;;;;;;;;8.87;92.85;99893.78;8352637;28;19947;-74
2022/10/12 19:44:35;;;;;;;;;;;;;;;8.75;92.74;99891.06;8324748;28;19929;-73
2022/10/12 19:48:38;;;;;;;;;;;;;;;8.72;92.78;99902.25;8331613;28;19990;-74
2022/10/12 19:52:39;;;;;;;;;;;;;;;8.72;93.46;99894.50;8326215;28;19940;-73
2022/10/12 19:56:40;;;;;;;;;;;;;;;8.63;92.94;99899.59;8342689;28;20320;-73
2022/10/12 20:00:41;;;;;;;;;;;;;;;8.67;93.83;99905.66;8347503;28;20358;-73
2022/10/12 20:04:43;;;;;;;;;;;;;;;8.64;93.35;99909.09;8344369;28;20238;-73
2022/10/12 20:08:45;;;;;;;;;;;;;;;8.63;93.36;99909.06;8348654;28;20500;-75
2022/10/12 20:12:46;;;;;;;;;;;;;;;8.60;93.40;99912.47;8348040;28;20670;-74
2022/10/12 20:16:47;;;;;;;;;;;;;;;8.57;92.44;99906.38;8344856;28;20546;-75
2022/10/12 20:20:49;;;;;;;;;;;;;;;8.41;92.48;99913.09;8332233;28;19990;-75
2022/10/12 20:24:51;;;;;;;;;;;;;;;8.33;92.10;99904.34;8350105;28;20304;-75
2022/10/12 20:28:52;;;;;;;;;;;;;;;8.26;92.46;99906.00;8339737;28;20293;-75
2022/10/12 20:32:54;;;;;;;;;;;;;;;8.25;92.98;99906.81;8345417;28;19982;-75
2022/10/12 20:36:56;;;;;;;;;;;;;;;8.19;92.79;99905.03;8312342;28;20547;-75
2022/10/12 20:41:09;;;;;;;;;;;;;;;8.12;92.76;99905.81;8301187;28;19976;-75
2022/10/12 20:45:13;;;;;;;;;;;;;;;8.08;92.98;99908.34;8303390;28;19991;-74
2022/10/12 20:49:14;;;;;;;;;;;;;;;8.00;92.58;99908.22;8317370;28;19929;-73
2022/10/12 20:53:15;;;;;;;;;;;;;;;7.88;92.52;99906.31;8290693;28;19930;-75
2022/10/12 20:57:17;;;;;;;;;;;;;;;7.84;92.67;99909.69;8313253;28;20313;-75
2022/10/12 21:01:19;;;;;;;;;;;;;;;7.76;92.44;99906.16;8312198;28;19990;-73
2022/10/12 21:05:20;;;;;;;;;;;;;;;7.72;92.45;99901.78;8310276;28;19980;-73
2022/10/12 21:09:22;;;;;;;;;;;;;;;7.68;92.58;99901.69;8312623;28;19980;-75